Time;durP1;ratioP1;P1;durP2;ratioP2;P2;SDS_P1;SDS_P2;PMS_P1;PMS_P2;Temp;Humidity;BMP_temperature;BMP_pressure;BME280_temperature;BME280_humidity;BME280_pressure;Samples;Min_cycle;Max_cycle;Signal;HPM_P1;HPM_P2
2022/10/28 00:02:24;;;;;;;5.72;2.10;;;;;;;19.89;66.07;100408.47;5033387;28;20037;-76
2022/10/28 00:04:49;;;;;;;7.07;1.75;;;;;;;19.83;66.30;100404.50;5033312;28;20018;-77
2022/10/28 00:07:14;;;;;;;8.13;2.33;;;;;;;19.74;66.45;100401.31;5033330;28;20038;-76
2022/10/28 00:09:39;;;;;;;6.35;1.65;;;;;;;19.78;66.52;100402.09;5032866;28;20021;-76
2022/10/28 00:12:05;;;;;;;7.07;2.45;;;;;;;19.77;66.29;100406.84;5015439;28;20368;-77
2022/10/28 00:14:30;;;;;;;;;;;;;;;19.65;66.48;100404.47;5016257;28;20113;-77
2022/10/28 00:16:56;;;;;;;5.50;1.75;;;;;;;19.82;65.62;100400.97;5033658;28;19962;-76
2022/10/28 00:19:21;;;;;;;5.90;2.00;;;;;;;19.81;65.74;100396.59;5033645;28;20120;-77
2022/10/28 00:21:46;;;;;;;;;;;;;;;19.78;65.51;100402.09;5033806;28;20029;-77
2022/10/28 00:24:13;;;;;;;8.43;1.98;;;;;;;19.72;65.59;100395.38;5015532;28;19988;-76
2022/10/28 00:26:41;;;;;;;5.95;2.08;;;;;;;19.79;65.30;100398.16;5033251;28;20522;-76
2022/10/28 00:29:15;;;;;;;6.20;1.70;;;;;;;19.88;64.70;100390.31;5033229;28;20029;-76
2022/10/28 00:31:41;;;;;;;10.45;2.42;;;;;;;19.84;64.70;100389.50;5015918;28;20032;-76
2022/10/28 00:34:12;;;;;;;3.58;1.55;;;;;;;19.76;64.92;100393.41;5015287;28;20029;-76
2022/10/28 00:36:40;;;;;;;5.40;1.65;;;;;;;19.87;64.53;100377.69;5033102;28;20435;-77
2022/10/28 00:39:13;;;;;;;4.40;1.55;;;;;;;19.91;63.92;100377.69;5033231;28;20040;-77
2022/10/28 00:41:41;;;;;;;5.53;1.63;;;;;;;19.91;63.57;100378.47;5032917;28;20403;-78
2022/10/28 00:44:46;;;;;;;9.32;2.55;;;;;;;19.90;63.58;100387.94;5015475;28;20526;-77
2022/10/28 00:47:17;;;;;;;7.95;1.70;;;;;;;19.98;63.10;100388.72;5033004;28;20513;-76
2022/10/28 00:49:44;;;;;;;5.22;1.20;;;;;;;20.01;63.19;100377.72;5032884;28;20021;-77
2022/10/28 00:52:22;;;;;;;4.35;1.52;;;;;;;19.89;63.08;100377.28;5032839;28;20033;-77
2022/10/28 00:54:51;;;;;;;6.03;1.80;;;;;;;19.98;62.53;100378.47;5033067;28;20041;-76
2022/10/28 00:57:21;;;;;;;5.35;1.42;;;;;;;19.91;62.65;100380.44;5014998;28;20036;-77
2022/10/28 00:59:50;;;;;;;4.72;1.83;;;;;;;20.04;62.31;100381.66;5032779;28;20025;-76
2022/10/28 01:02:15;;;;;;;5.22;1.67;;;;;;;20.04;61.75;100376.91;5033552;28;20026;-77
2022/10/28 01:04:42;;;;;;;14.13;1.77;;;;;;;20.09;61.63;100375.72;5032557;28;20028;-77
2022/10/28 01:07:09;;;;;;;6.75;1.73;;;;;;;20.10;61.04;100374.53;5032698;28;20029;-77
2022/10/28 01:09:35;;;;;;;2.88;1.20;;;;;;;20.16;60.85;100377.72;5032308;28;20030;-77
2022/10/28 01:12:22;;;;;;;5.13;1.67;;;;;;;20.21;60.62;100374.56;5014787;28;20030;-77
2022/10/28 01:15:09;;;;;;;3.60;1.50;;;;;;;20.32;60.31;100376.16;5032578;28;20099;-77
2022/10/28 01:17:43;;;;;;;4.43;1.27;;;;;;;20.35;60.03;100369.84;5032537;28;20047;-77
2022/10/28 01:20:20;;;;;;;5.80;1.88;;;;;;;20.18;60.63;100373.38;5014864;28;20029;-76
2022/10/28 01:23:20;;;;;;;5.57;1.75;;;;;;;20.23;60.37;100373.00;5036434;28;20022;-77
2022/10/28 01:25:58;;;;;;;3.95;1.60;;;;;;;20.27;60.27;100384.03;5036374;28;20017;-76
2022/10/28 01:29:01;;;;;;;5.10;1.50;;;;;;;20.20;60.55;100389.56;5036803;28;20033;-77
2022/10/28 01:31:34;;;;;;;5.35;1.10;;;;;;;20.16;60.72;100384.06;5036430;28;20022;-77
2022/10/28 01:34:21;;;;;;;6.10;1.50;;;;;;;20.15;61.14;100376.91;5036866;28;20132;-78
2022/10/28 01:37:06;;;;;;;;;;;;;;;20.16;61.23;100380.50;5036603;28;20045;-78
2022/10/28 01:39:50;;;;;;;3.85;1.58;;;;;;;20.29;60.79;100370.63;5036626;28;19921;-78
2022/10/28 01:42:31;;;;;;;4.72;1.80;;;;;;;20.27;61.01;100384.03;5036153;28;20043;-78
2022/10/28 01:45:21;;;;;;;4.70;1.50;;;;;;;20.26;61.35;100360.34;5036248;28;20045;-77
2022/10/28 01:48:08;;;;;;;5.93;2.08;;;;;;;20.18;61.62;100358.78;5036277;28;20112;-77
2022/10/28 01:50:45;;;;;;;6.78;1.95;;;;;;;20.21;61.60;100357.97;5018445;28;20120;-77
2022/10/28 01:53:15;;;;;;;4.68;1.13;;;;;;;20.24;61.66;100354.44;5035959;28;20116;-77
2022/10/28 01:55:46;;;;;;;7.82;2.38;;;;;;;20.20;61.82;100357.19;5036377;28;20091;-77
2022/10/28 01:58:17;;;;;;;8.63;2.38;;;;;;;20.19;62.16;100354.81;5036215;28;20021;-78
2022/10/28 02:00:45;;;;;;;7.30;1.60;;;;;;;20.04;62.46;100370.59;5035988;28;20021;-77
2022/10/28 02:03:10;;;;;;;5.13;1.73;;;;;;;20.00;62.76;100354.03;5035582;28;20040;-77
2022/10/28 02:05:43;;;;;;;6.25;1.88;;;;;;;19.88;63.38;100368.19;5035596;28;20029;-77
2022/10/28 02:08:14;;;;;;;8.32;2.40;;;;;;;19.98;63.25;100353.59;5036202;28;20032;-77
2022/10/28 02:11:04;;;;;;;4.78;1.98;;;;;;;19.82;63.96;100350.44;5036194;28;20047;-78
2022/10/28 02:14:06;;;;;;;6.88;1.52;;;;;;;19.76;64.40;100340.94;5024836;28;20041;-77
2022/10/28 02:16:49;;;;;;;7.20;1.98;;;;;;;19.85;63.85;100349.66;5017946;28;20072;-77
2022/10/28 02:19:29;;;;;;;5.93;2.15;;;;;;;19.76;64.42;100363.81;5036074;28;20029;-77
2022/10/28 02:22:08;;;;;;;8.25;2.33;;;;;;;19.80;64.27;100366.59;5035817;28;20028;-76
2022/10/28 02:25:11;;;;;;;4.65;1.60;;;;;;;19.63;64.93;100353.53;5035563;28;20056;-77
2022/10/28 02:27:48;;;;;;;6.97;1.45;;;;;;;19.65;64.99;100354.72;5035438;28;20021;-77
2022/10/28 02:30:22;;;;;;;5.65;2.60;;;;;;;19.61;65.07;100355.88;5017555;28;20030;-77
2022/10/28 02:32:56;;;;;;;7.45;2.10;;;;;;;19.59;65.14;100352.72;5034351;28;20033;-78
2022/10/28 02:35:38;;;;;;;8.13;2.72;;;;;;;19.73;64.89;100355.53;5035469;28;20190;-77
2022/10/28 02:38:10;;;;;;;5.80;1.90;;;;;;;19.63;65.37;100350.75;5035703;28;20025;-78
2022/10/28 02:40:38;;;;;;;5.57;1.98;;;;;;;19.64;65.27;100346.81;5035150;28;20060;-77
2022/10/28 02:43:07;;;;;;;6.53;2.00;;;;;;;19.55;65.71;100336.16;5017633;28;20064;-77
2022/10/28 02:45:42;;;;;;;6.50;2.28;;;;;;;19.50;65.72;100342.03;5035362;28;20029;-77
2022/10/28 02:48:20;;;;;;;7.05;2.15;;;;;;;19.46;66.13;100335.69;5035010;28;20124;-77
2022/10/28 02:50:58;;;;;;;8.13;1.80;;;;;;;19.41;66.25;100330.53;5035423;28;20116;-77
2022/10/28 02:53:31;;;;;;;5.82;2.13;;;;;;;19.39;66.67;100336.47;5034814;28;20063;-77
2022/10/28 02:55:59;;;;;;;4.57;1.73;;;;;;;19.44;66.14;100332.53;5035413;28;20030;-77
2022/10/28 02:58:24;;;;;;;6.53;1.85;;;;;;;19.39;66.34;100330.16;5034732;28;20033;-77
2022/10/28 03:00:50;;;;;;;4.95;1.73;;;;;;;19.36;66.78;100328.16;5034522;28;20025;-77
2022/10/28 03:03:15;;;;;;;4.78;1.67;;;;;;;19.30;66.89;100329.69;5034622;28;20037;-77
2022/10/28 03:05:41;;;;;;;5.13;1.75;;;;;;;19.31;67.02;100317.47;5034809;28;20037;-76
2022/10/28 03:08:06;;;;;;;;;;;;;;;19.27;67.02;100322.19;5035213;28;20047;-77
2022/10/28 03:10:32;;;;;;;7.00;2.13;;;;;;;19.37;66.55;100318.69;5034665;28;19997;-77
2022/10/28 03:12:57;;;;;;;4.82;1.95;;;;;;;19.34;67.00;100328.56;5034981;28;20462;-76
2022/10/28 03:15:22;;;;;;;;;;;;;;;19.26;67.14;100321.41;5035031;28;20104;-78
2022/10/28 03:17:47;;;;;;;5.93;1.50;;;;;;;19.27;67.07;100323.00;5034621;28;20393;-78
2022/10/28 03:20:14;;;;;;;6.50;1.92;;;;;;;19.24;67.10;100324.56;5034515;28;20025;-78
2022/10/28 03:22:43;;;;;;;9.43;2.67;;;;;;;19.20;67.34;100329.28;5034295;28;20030;-77
2022/10/28 03:25:08;;;;;;;5.22;2.20;;;;;;;19.19;67.27;100326.91;5016868;28;20026;-79
2022/10/28 03:27:34;;;;;;;6.88;1.98;;;;;;;19.16;67.37;100313.91;5016549;28;20032;-78
2022/10/28 03:30:00;;;;;;;6.32;1.70;;;;;;;19.12;67.70;100319.38;5034720;28;20024;-78
2022/10/28 03:32:27;;;;;;;4.85;1.75;;;;;;;19.23;67.03;100308.41;5016691;28;20116;-77
2022/10/28 03:34:52;;;;;;;8.27;1.83;;;;;;;19.22;66.82;100312.34;5034042;28;20466;-77
2022/10/28 03:37:17;;;;;;;5.22;2.08;;;;;;;19.33;66.37;100301.34;5034208;28;20124;-77
2022/10/28 03:39:43;;;;;;;5.72;1.98;;;;;;;19.29;66.59;100298.53;5034306;28;20021;-77
2022/10/28 03:42:08;;;;;;;5.15;1.73;;;;;;;19.23;66.94;100306.41;5033941;28;20057;-77
2022/10/28 03:44:33;;;;;;;;;;;;;;;19.27;66.70;100300.13;5034054;28;20025;-78
2022/10/28 03:46:59;;;;;;;5.13;1.80;;;;;;;19.26;66.89;100309.56;5016324;28;19916;-77
2022/10/28 03:49:24;;;;;;;;;;;;;;;19.17;67.26;100290.63;5016579;28;20284;-79
2022/10/28 03:51:50;;;;;;;5.43;2.40;;;;;;;19.14;67.30;100296.91;5016281;28;19913;-79
2022/10/28 03:54:15;;;;;;;;;;;;;;;19.05;67.61;100288.22;5034482;28;20263;-79
2022/10/28 03:56:40;;;;;;;6.60;2.20;;;;;;;19.04;67.57;100292.94;5016088;28;20282;-80
2022/10/28 03:59:07;;;;;;;;;;;;;;;19.17;67.29;100285.13;5034299;28;20108;-79
2022/10/28 04:01:33;;;;;;;8.45;2.92;;;;;;;19.11;67.66;100292.97;5033798;28;19909;-78
2022/10/28 04:03:58;;;;;;;5.18;1.98;;;;;;;19.18;67.44;100283.94;5033816;28;20029;-79
2022/10/28 04:06:23;;;;;;;4.80;1.63;;;;;;;19.19;67.53;100282.75;5015854;28;20116;-79
2022/10/28 04:08:49;;;;;;;4.70;2.13;;;;;;;19.18;67.38;100287.47;5033924;28;20025;-78
2022/10/28 04:11:14;;;;;;;;;;;;;;;19.12;67.63;100293.75;5033919;28;20033;-79
2022/10/28 04:13:39;;;;;;;5.60;2.07;;;;;;;19.14;67.65;100294.94;5033973;28;20337;-78
2022/10/28 04:16:05;;;;;;;7.63;1.90;;;;;;;19.07;67.83;100291.38;5033519;28;20043;-79
2022/10/28 04:18:30;;;;;;;;;;;;;;;19.05;67.86;100288.22;5033970;28;20022;-80
2022/10/28 04:20:56;;;;;;;6.22;1.67;;;;;;;19.08;68.05;100290.19;5033617;28;19909;-79
2022/10/28 04:23:22;;;;;;;;;;;;;;;19.17;67.45;100298.91;5033402;28;20116;-79
2022/10/28 04:25:52;;;;;;;4.63;1.42;;;;;;;19.08;67.92;100290.19;5033208;28;19920;-79
2022/10/28 04:28:18;;;;;;;5.30;1.70;;;;;;;19.06;67.94;100292.53;5033260;28;20025;-79
2022/10/28 04:30:46;;;;;;;6.95;2.35;;;;;;;19.02;68.21;100289.00;5015290;28;20075;-79
2022/10/28 04:33:11;;;;;;;5.90;1.90;;;;;;;19.07;68.04;100294.13;5033205;28;20036;-77
2022/10/28 04:35:38;;;;;;;7.35;1.83;;;;;;;19.08;67.91;100299.25;5032984;28;20026;-78
2022/10/28 04:38:04;;;;;;;13.13;2.33;;;;;;;19.03;68.25;100290.56;5032977;28;20036;-77
2022/10/28 04:40:29;;;;;;;5.05;2.42;;;;;;;18.93;68.83;100295.63;5032853;28;20029;-78
2022/10/28 04:42:54;;;;;;;;;;;;;;;18.97;68.71;100294.84;5033344;28;20025;-78
2022/10/28 04:45:21;;;;;;;5.93;2.17;;;;;;;18.93;68.58;100306.69;5015338;28;19963;-78
2022/10/28 04:47:46;;;;;;;7.53;1.63;;;;;;;18.92;68.92;100296.03;5015067;28;20031;-78
2022/10/28 04:50:12;;;;;;;5.72;1.90;;;;;;;19.03;68.26;100304.38;5032928;28;20104;-78
2022/10/28 04:52:37;;;;;;;6.68;1.98;;;;;;;18.91;68.66;100295.25;5015283;28;20032;-77
2022/10/28 04:55:03;;;;;;;;;;;;;;;18.92;68.94;100299.56;5032967;28;20049;-78
2022/10/28 04:57:28;;;;;;;6.45;1.73;;;;;;;18.95;68.80;100300.75;5031967;28;19958;-79
2022/10/28 04:59:53;;;;;;;7.22;2.15;;;;;;;18.93;68.93;100301.16;5032292;28;20045;-77
2022/10/28 05:02:20;;;;;;;;;;;;;;;18.97;68.84;100305.91;5032702;28;20021;-78
2022/10/28 05:04:47;;;;;;;4.07;1.80;;;;;;;19.13;68.28;100307.16;5032368;28;19920;-78
2022/10/28 05:07:14;;;;;;;5.97;1.98;;;;;;;19.00;68.75;100302.38;5032413;28;20482;-78
2022/10/28 05:09:39;;;;;;;11.20;3.20;;;;;;;18.97;68.61;100306.69;5015356;28;20070;-79
2022/10/28 05:12:05;;;;;;;6.75;2.45;;;;;;;18.96;68.70;100296.03;5032600;28;20026;-79
2022/10/28 05:14:32;;;;;;;8.27;1.83;;;;;;;19.01;68.48;100303.97;5032287;28;20065;-78
2022/10/28 05:16:57;;;;;;;5.60;1.95;;;;;;;18.93;68.99;100297.59;5015032;28;20025;-78
2022/10/28 05:19:23;;;;;;;5.50;2.22;;;;;;;18.85;69.49;100307.03;5014588;28;20462;-78
2022/10/28 05:21:48;;;;;;;;;;;;;;;18.82;69.25;100308.59;5032681;28;20501;-80
2022/10/28 05:24:13;;;;;;;6.60;2.22;;;;;;;18.80;69.68;100294.38;5032469;28;19913;-78
2022/10/28 05:26:39;;;;;;;7.68;1.92;;;;;;;18.78;69.81;100302.25;5032623;28;20025;-78
2022/10/28 05:29:04;;;;;;;;;;;;;;;18.78;69.85;100306.97;5032482;28;20454;-77
2022/10/28 05:31:29;;;;;;;5.53;1.67;;;;;;;18.78;70.11;100302.25;5032015;28;19916;-77
2022/10/28 05:33:54;;;;;;;;;;;;;;;18.78;69.92;100305.00;5032534;28;20276;-78
2022/10/28 05:36:20;;;;;;;5.73;1.67;;;;;;;18.77;70.18;100302.63;5031941;28;19915;-77
2022/10/28 05:38:45;;;;;;;;;;;;;;;18.75;70.04;100299.47;5032983;28;20025;-79
2022/10/28 05:41:11;;;;;;;6.35;2.58;;;;;;;18.74;70.28;100312.47;5032031;28;19948;-78
2022/10/28 05:43:36;;;;;;;;;;;;;;;18.84;69.94;100317.28;5032628;28;20025;-77
2022/10/28 05:46:02;;;;;;;6.00;1.83;;;;;;;18.79;69.81;100303.84;5032053;28;19917;-78
2022/10/28 05:48:28;;;;;;;4.40;1.80;;;;;;;18.73;70.37;100310.09;5032213;28;20265;-77
2022/10/28 05:50:53;;;;;;;6.93;2.17;;;;;;;18.72;70.22;100298.28;5032121;28;20044;-77
2022/10/28 05:53:18;;;;;;;;;;;;;;;18.70;70.30;100300.66;5014838;28;20030;-78
2022/10/28 05:55:44;;;;;;;6.28;2.90;;;;;;;18.73;70.40;100291.59;5032283;28;19913;-78
2022/10/28 05:58:09;;;;;;;;;;;;;;;18.74;70.34;100295.94;5014732;28;20051;-78
2022/10/28 06:00:35;;;;;;;6.40;1.98;;;;;;;18.72;70.41;100306.56;5032028;28;19920;-78
2022/10/28 06:03:08;;;;;;;;;;;;;;;18.74;70.28;100301.44;5032260;28;20029;-78
2022/10/28 06:05:33;;;;;;;6.53;2.47;;;;;;;18.71;70.59;100306.94;5032232;28;19991;-78
2022/10/28 06:07:59;;;;;;;4.78;1.63;;;;;;;18.75;70.28;100305.78;5033990;28;20021;-78
2022/10/28 06:10:24;;;;;;;;;;;;;;;18.76;70.26;100312.88;5036160;28;20096;-78
2022/10/28 06:12:49;;;;;;;7.22;2.00;;;;;;;18.69;70.40;100307.34;5035610;28;20423;-77
2022/10/28 06:15:14;;;;;;;;;;;;;;;18.69;70.71;100303.78;5035882;28;20025;-79
2022/10/28 06:17:40;;;;;;;5.03;2.25;;;;;;;18.69;70.52;100298.28;5035291;28;19908;-78
2022/10/28 06:20:05;;;;;;;;;;;;;;;18.69;70.64;100296.31;5035538;28;20033;-78
2022/10/28 06:22:31;;;;;;;5.80;1.63;;;;;;;18.70;70.50;100308.91;5035500;28;20315;-78
2022/10/28 06:24:56;;;;;;;;;;;;;;;18.76;70.40;100298.31;5035620;28;20029;-78
2022/10/28 06:27:21;;;;;;;6.67;2.27;;;;;;;18.73;70.35;100304.59;5018209;28;19996;-77
2022/10/28 06:29:46;;;;;;;;;;;;;;;18.72;70.51;100309.31;5035756;28;20257;-78
2022/10/28 06:32:12;;;;;;;5.60;2.07;;;;;;;18.68;70.73;100311.28;5035543;28;20414;-77
2022/10/28 06:34:38;;;;;;;;;;;;;;;18.67;70.78;100317.19;5035906;28;20033;-77
2022/10/28 06:37:05;;;;;;;4.88;2.03;;;;;;;18.74;70.33;100315.25;5035224;28;19955;-78
2022/10/28 06:39:31;;;;;;;6.63;2.35;;;;;;;18.69;70.61;100323.88;5035255;28;20025;-78
2022/10/28 06:41:56;;;;;;;6.70;2.13;;;;;;;18.75;70.32;100318.78;5035172;28;20060;-79
2022/10/28 06:44:22;;;;;;;5.88;2.13;;;;;;;18.71;70.54;100315.22;5035092;28;20033;-79
2022/10/28 06:46:48;;;;;;;8.73;2.92;;;;;;;18.64;70.65;100318.72;5035727;28;20045;-80
2022/10/28 06:49:13;;;;;;;4.95;2.28;;;;;;;18.62;70.99;100324.59;5034682;28;20474;-79
2022/10/28 06:51:39;;;;;;;8.70;2.00;;;;;;;18.64;70.80;100318.72;5035249;28;20477;-77
2022/10/28 06:54:04;;;;;;;;;;;;;;;18.70;70.70;100333.75;5017727;28;20438;-76
2022/10/28 06:56:29;;;;;;;5.17;1.63;;;;;;;18.73;70.50;100337.69;5035163;28;20410;-76
2022/10/28 06:58:54;;;;;;;;;;;;;;;18.69;70.74;100332.16;5017624;28;20805;-76
2022/10/28 07:01:20;;;;;;;6.40;2.17;;;;;;;18.67;70.63;100329.00;5034997;28;19920;-77
2022/10/28 07:03:46;;;;;;;;;;;;;;;18.66;70.74;100338.44;5017289;28;20279;-78
2022/10/28 07:06:12;;;;;;;6.88;2.63;;;;;;;18.76;70.53;100337.72;5034908;28;20332;-77
2022/10/28 07:08:37;;;;;;;;;;;;;;;18.68;70.54;100336.09;5035419;28;20052;-77
2022/10/28 07:11:02;;;;;;;7.63;2.10;;;;;;;18.70;70.50;100338.47;5016759;28;19913;-77
2022/10/28 07:13:28;;;;;;;;;;;;;;;18.70;70.54;100343.97;5034949;28;20260;-79
2022/10/28 07:15:58;;;;;;;8.73;1.83;;;;;;;18.71;70.68;100335.31;5034805;28;19944;-78
2022/10/28 07:18:29;;;;;;;6.00;2.50;;;;;;;18.75;70.51;100333.38;5032725;28;20402;-77
2022/10/28 07:20:59;;;;;;;7.82;2.28;;;;;;;18.77;70.37;100344.00;5034223;28;20021;-79
2022/10/28 07:23:26;;;;;;;5.65;2.08;;;;;;;18.76;70.16;100348.75;5016436;28;20033;-79
2022/10/28 07:25:55;;;;;;;9.23;1.85;;;;;;;18.82;69.88;100347.22;5016935;28;20026;-78
2022/10/28 07:28:22;;;;;;;11.02;2.53;;;;;;;18.91;70.34;100344.91;5034917;28;20029;-76
2022/10/28 07:30:47;;;;;;;4.55;1.58;;;;;;;18.91;69.86;100353.19;5034197;28;20029;-79
2022/10/28 07:33:13;;;;;;;7.38;2.30;;;;;;;18.89;69.97;100358.28;5016163;28;20032;-78
2022/10/28 07:35:38;;;;;;;;;;;;;;;19.07;69.38;100358.38;5034840;28;20025;-78
2022/10/28 07:38:03;;;;;;;4.80;1.85;;;;;;;19.00;69.43;100358.38;5016491;28;19908;-78
2022/10/28 07:40:29;;;;;;;;;;;;;;;18.96;69.39;100356.75;5016859;28;20033;-79
2022/10/28 07:42:54;;;;;;;6.97;2.08;;;;;;;19.04;69.54;100363.91;5034075;28;20309;-78
2022/10/28 07:45:20;;;;;;;;;;;;;;;19.02;69.43;100356.00;5034032;28;20029;-79
2022/10/28 07:47:46;;;;;;;6.93;1.70;;;;;;;19.03;69.27;100356.81;5016088;28;19908;-80
2022/10/28 07:50:11;;;;;;;;;;;;;;;18.97;69.42;100356.34;5034400;28;20045;-79
2022/10/28 07:52:37;;;;;;;6.50;2.33;;;;;;;18.98;69.47;100354.38;5034237;28;19916;-79
2022/10/28 07:55:03;;;;;;;;;;;;;;;18.99;69.45;100361.50;5016660;28;20560;-80
2022/10/28 07:57:28;;;;;;;8.77;1.75;;;;;;;19.04;69.40;100353.66;5033649;28;19931;-80
2022/10/28 07:59:54;;;;;;;5.80;1.92;;;;;;;19.16;68.74;100352.53;5033522;28;20379;-79
2022/10/28 08:02:24;;;;;;;;;;;;;;;19.13;68.88;100351.31;5034012;28;20071;-79
2022/10/28 08:04:51;;;;;;;6.70;2.20;;;;;;;19.18;68.72;100356.50;5033526;28;19940;-79
2022/10/28 08:07:17;;;;;;;5.72;2.08;;;;;;;19.05;69.39;100355.22;5033129;28;20063;-79
2022/10/28 08:09:42;;;;;;;9.70;2.95;;;;;;;19.16;69.00;100355.28;5033221;28;20033;-79
2022/10/28 08:12:11;;;;;;;4.10;1.60;;;;;;;19.12;69.21;100358.00;5033583;28;20052;-78
2022/10/28 08:14:37;;;;;;;5.55;2.00;;;;;;;19.06;69.34;100362.34;5033213;28;20083;-79
2022/10/28 08:17:04;;;;;;;4.95;1.65;;;;;;;19.08;69.26;100370.22;4999343;28;20041;-79
2022/10/28 08:19:29;;;;;;;7.85;2.50;;;;;;;19.16;68.98;100372.66;5015509;28;20083;-78
2022/10/28 08:21:55;;;;;;;6.28;1.85;;;;;;;19.13;69.13;100364.31;5033691;28;20025;-79
2022/10/28 08:24:20;;;;;;;;;;;;;;;19.14;68.92;100372.22;5033281;28;20036;-79
2022/10/28 08:26:45;;;;;;;5.60;2.47;;;;;;;19.23;68.82;100383.72;5015373;28;20443;-79
2022/10/28 08:29:11;;;;;;;;;;;;;;;19.25;68.60;100369.53;5033324;28;20032;-80
2022/10/28 08:31:37;;;;;;;4.03;1.88;;;;;;;19.18;68.70;100363.97;5032350;28;19916;-79
2022/10/28 08:34:02;;;;;;;7.18;2.33;;;;;;;19.23;68.68;100366.34;5033281;28;20029;-77
2022/10/28 08:36:28;;;;;;;6.55;2.40;;;;;;;19.37;67.92;100371.94;5015136;28;20379;-78
2022/10/28 08:38:58;;;;;;;;;;;;;;;19.27;68.44;100363.59;5015263;28;20053;-81
2022/10/28 08:41:44;;;;;;;6.95;2.00;;;;;;;19.28;68.13;100359.66;5032764;28;19924;-78
2022/10/28 08:44:31;;;;;;;7.20;2.75;;;;;;;19.42;67.85;100355.00;5032849;28;20034;-78
2022/10/28 08:47:06;;;;;;;6.45;2.05;;;;;;;19.36;67.81;100353.00;5032539;28;20037;-78
2022/10/28 08:49:35;;;;;;;6.13;1.75;;;;;;;19.53;67.39;100344.78;5014682;28;20148;-76
2022/10/28 08:52:18;;;;;;;12.23;2.20;;;;;;;19.43;67.70;100353.81;5032636;28;20036;-77
2022/10/28 08:54:49;;;;;;;8.18;2.38;;;;;;;19.58;67.50;100340.88;5032786;28;20060;-77
2022/10/28 08:57:20;;;;;;;6.97;2.20;;;;;;;19.66;67.01;100348.03;5032316;28;20108;-78
2022/10/28 08:59:48;;;;;;;6.78;3.08;;;;;;;19.69;66.84;100338.16;5032184;28;20148;-77
2022/10/28 09:02:21;;;;;;;6.75;2.20;;;;;;;19.81;66.10;100346.06;5032307;28;20021;-77
2022/10/28 09:05:01;;;;;;;5.20;1.80;;;;;;;19.85;66.32;100344.13;5014259;28;20394;-77
2022/10/28 09:07:26;;;;;;;6.82;2.08;;;;;;;19.90;65.80;100354.78;5031850;28;20129;-77
2022/10/28 09:09:53;;;;;;;5.88;2.05;;;;;;;20.03;65.11;100347.69;5014340;28;20040;-77
2022/10/28 09:12:42;;;;;;;5.32;1.95;;;;;;;20.07;65.49;100348.50;5032539;28;20021;-78
2022/10/28 09:15:17;;;;;;;5.82;2.45;;;;;;;20.10;65.01;100342.16;5032275;28;20032;-78
2022/10/28 09:17:54;;;;;;;6.72;1.92;;;;;;;20.19;64.60;100341.78;5032515;28;20048;-78
2022/10/28 09:20:42;;;;;;;7.13;2.13;;;;;;;20.32;63.87;100351.28;5032467;28;20030;-78
2022/10/28 09:23:22;;;;;;;5.88;2.13;;;;;;;20.34;64.31;100340.63;5032304;28;20053;-77
2022/10/28 09:26:19;;;;;;;5.13;1.75;;;;;;;20.40;64.13;100339.03;5032254;28;20026;-78
2022/10/28 09:28:55;;;;;;;8.00;2.25;;;;;;;20.45;63.59;100328.78;5014608;28;20390;-78
2022/10/28 09:31:34;;;;;;;7.88;2.25;;;;;;;20.70;63.02;100333.09;5032490;28;20026;-78
2022/10/28 09:34:21;;;;;;;8.18;2.42;;;;;;;20.64;62.92;100328.34;5014543;28;20111;-78
2022/10/28 09:36:57;;;;;;;6.25;2.17;;;;;;;20.69;63.28;100339.81;5032535;28;20021;-78
2022/10/28 09:39:28;;;;;;;8.18;1.80;;;;;;;20.76;62.53;100332.69;5032276;28;20572;-78
2022/10/28 09:41:56;;;;;;;5.72;1.80;;;;;;;20.79;63.25;100337.41;5032333;28;20049;-77
2022/10/28 09:44:47;;;;;;;5.68;2.13;;;;;;;20.72;62.74;100336.25;5036074;28;20033;-78
2022/10/28 09:47:20;;;;;;;7.03;2.00;;;;;;;20.80;62.48;100336.22;5035644;28;20168;-78
2022/10/28 09:49:50;;;;;;;7.35;2.03;;;;;;;20.86;61.96;100324.38;5036567;28;20021;-78
2022/10/28 09:52:21;;;;;;;6.47;1.80;;;;;;;20.91;62.02;100328.69;5018347;28;20025;-79
2022/10/28 09:54:52;;;;;;;6.60;2.00;;;;;;;20.86;62.03;100323.56;5035798;28;20075;-78
2022/10/28 09:57:19;;;;;;;8.85;2.22;;;;;;;20.78;62.38;100344.94;5018166;28;20025;-78
2022/10/28 09:59:45;;;;;;;6.25;1.50;;;;;;;20.77;62.25;100342.56;5018143;28;20021;-77
2022/10/28 10:02:34;;;;;;;10.30;2.38;;;;;;;20.75;62.24;100353.25;5018091;28;20034;-78
2022/10/28 10:05:01;;;;;;;7.82;1.90;;;;;;;20.77;62.20;100348.09;5036089;28;20021;-78
2022/10/28 10:07:39;;;;;;;9.88;2.22;;;;;;;20.85;62.39;100349.69;5035605;28;20036;-78
2022/10/28 10:10:30;;;;;;;6.32;1.83;;;;;;;20.95;62.06;100346.88;5035761;28;20449;-78
2022/10/28 10:13:00;;;;;;;8.30;1.65;;;;;;;21.06;61.52;100348.81;5017309;28;20056;-78
2022/10/28 10:15:50;;;;;;;7.07;1.80;;;;;;;21.10;61.71;100360.66;5035395;28;20049;-78
2022/10/28 10:18:21;;;;;;;8.35;2.13;;;;;;;21.04;61.86;100357.53;5034679;28;20041;-77
2022/10/28 10:20:58;;;;;;;6.40;1.95;;;;;;;21.06;61.85;100352.38;5035670;28;20021;-77
2022/10/28 10:23:29;;;;;;;5.53;2.00;;;;;;;21.07;61.39;100350.41;5017631;28;20433;-77
2022/10/28 10:26:15;;;;;;;6.80;1.80;;;;;;;21.08;61.80;100346.44;5035095;28;20029;-77
2022/10/28 10:28:49;;;;;;;7.80;2.72;;;;;;;21.12;61.42;100350.78;5035594;28;20036;-78
2022/10/28 10:31:25;;;;;;;5.57;2.13;;;;;;;21.17;61.23;100346.81;5017523;28;20080;-78
2022/10/28 10:33:54;;;;;;;6.53;1.90;;;;;;;21.27;61.01;100346.00;5017382;28;20029;-78
2022/10/28 10:36:22;;;;;;;4.13;1.88;;;;;;;21.35;60.69;100339.25;5035316;28;20450;-78
2022/10/28 10:38:53;;;;;;;7.38;1.80;;;;;;;21.36;60.92;100340.06;5035473;28;20052;-78
2022/10/28 10:41:42;;;;;;;5.53;2.10;;;;;;;21.34;60.46;100342.44;5034921;28;20187;-77
2022/10/28 10:44:19;;;;;;;5.35;1.63;;;;;;;21.32;60.70;100338.06;5017371;28;20065;-78
2022/10/28 10:47:03;;;;;;;7.10;1.60;;;;;;;21.32;60.57;100351.91;5034841;28;20029;-78
2022/10/28 10:49:29;;;;;;;5.28;1.63;;;;;;;21.41;60.27;100342.41;5035220;28;20112;-78
2022/10/28 10:52:01;;;;;;;6.75;1.98;;;;;;;21.45;60.01;100340.38;5034429;28;20068;-78
2022/10/28 10:54:30;;;;;;;5.78;2.10;;;;;;;21.50;60.30;100342.72;5033565;28;20083;-78
2022/10/28 10:57:13;;;;;;;5.65;1.90;;;;;;;21.57;60.26;100339.94;5035071;28;20025;-78
2022/10/28 10:59:43;;;;;;;10.48;2.25;;;;;;;21.68;59.92;100321.28;5035017;28;20124;-79
2022/10/28 11:02:30;;;;;;;8.90;2.78;;;;;;;21.83;59.86;100331.06;5034513;28;20410;-78
2022/10/28 11:04:57;;;;;;;;;;;;;;;21.96;59.25;100327.81;5017251;28;20064;-77
2022/10/28 11:07:24;;;;;;;6.38;2.33;;;;;;;22.03;58.92;100325.00;5034675;28;19958;-78
2022/10/28 11:09:50;;;;;;;5.80;1.90;;;;;;;22.02;58.71;100315.91;5034930;28;20082;-78
2022/10/28 11:12:34;;;;;;;5.47;2.42;;;;;;;22.03;58.76;100317.47;5016798;28;20478;-78
2022/10/28 11:15:00;;;;;;;4.68;2.03;;;;;;;22.11;58.77;100323.78;5016731;28;20056;-78
2022/10/28 11:17:31;;;;;;;7.65;2.60;;;;;;;22.28;58.16;100320.06;5016648;28;20029;-77
2022/10/28 11:19:59;;;;;;;8.23;2.67;;;;;;;22.37;58.13;100320.41;5034490;28;20025;-76
2022/10/28 11:22:50;;;;;;;7.70;2.03;;;;;;;22.47;58.07;100318.72;5034766;28;20102;-77
2022/10/28 11:25:20;;;;;;;5.97;1.77;;;;;;;22.40;57.89;100316.03;5028049;28;20021;-77
2022/10/28 11:28:13;;;;;;;6.13;2.10;;;;;;;22.31;58.35;100313.69;5016749;28;20372;-77
2022/10/28 11:30:56;;;;;;;7.82;2.35;;;;;;;22.31;57.98;100301.81;5016455;28;20029;-76
2022/10/28 11:33:35;;;;;;;7.38;2.80;;;;;;;22.34;57.67;100301.81;5034143;28;20052;-77
2022/10/28 11:36:16;;;;;;;6.40;1.83;;;;;;;22.39;57.72;100303.34;5034211;28;20035;-78
2022/10/28 11:38:41;;;;;;;8.23;2.08;;;;;;;22.35;57.36;100297.84;5034026;28;20087;-79
2022/10/28 11:41:22;;;;;;;6.20;1.92;;;;;;;22.48;57.30;100306.41;5033931;28;20053;-78
2022/10/28 11:43:52;;;;;;;7.25;2.08;;;;;;;22.48;57.44;100301.66;5033995;28;20029;-78
2022/10/28 11:46:51;;;;;;;6.68;2.25;;;;;;;22.50;57.51;100307.56;5034092;28;20065;-78
2022/10/28 11:49:31;;;;;;;5.95;2.10;;;;;;;22.51;57.64;100295.31;5033833;28;20037;-77
2022/10/28 11:52:24;;;;;;;5.35;2.28;;;;;;;22.54;57.52;100295.69;5033718;28;20052;-77